createdAt,value
2023-04-15T00:01:19.414Z,7.40
2023-04-15T00:03:48.684Z,7.20
2023-04-15T00:06:19.478Z,6.70
2023-04-15T00:08:48.117Z,7.22
2023-04-15T00:11:16.509Z,7.50
2023-04-15T00:13:45.645Z,7.50
2023-04-15T00:16:14.060Z,7.65
2023-04-15T00:18:42.495Z,8.27
2023-04-15T00:21:10.800Z,8.48
2023-04-15T00:23:40.655Z,8.23
2023-04-15T00:26:09.620Z,7.82
2023-04-15T00:28:38.492Z,7.38
2023-04-15T00:31:06.970Z,6.93
2023-04-15T00:33:36.698Z,7.55
2023-04-15T00:36:08.579Z,7.22
2023-04-15T00:38:39.049Z,7.50
2023-04-15T00:41:09.149Z,6.93
2023-04-15T00:43:37.507Z,7.10
2023-04-15T00:46:07.585Z,7.80
2023-04-15T00:48:36.982Z,7.00
2023-04-15T00:51:05.496Z,7.95
2023-04-15T00:53:34.559Z,7.32
2023-04-15T00:56:02.876Z,7.75
2023-04-15T00:58:32.672Z,7.93
2023-04-15T01:01:01.967Z,7.90
2023-04-15T01:03:31.866Z,7.53
2023-04-15T01:06:03.617Z,8.07
2023-04-15T01:08:33.000Z,8.25
2023-04-15T01:11:03.638Z,8.40
2023-04-15T01:16:04.002Z,7.93
2023-04-15T01:18:32.873Z,8.00
2023-04-15T01:21:03.672Z,8.10
2023-04-15T01:23:33.160Z,8.27
2023-04-15T01:26:03.549Z,8.00
2023-04-15T01:28:32.264Z,8.73
2023-04-15T01:31:10.775Z,8.25
2023-04-15T01:33:39.579Z,8.43
2023-04-15T01:36:10.031Z,8.55
2023-04-15T01:38:39.203Z,8.90
2023-04-15T01:41:09.100Z,9.48
2023-04-15T01:43:37.865Z,8.70
2023-04-15T01:46:07.287Z,9.50
2023-04-15T01:48:35.937Z,9.20
2023-04-15T01:51:05.674Z,9.65
2023-04-15T01:53:34.331Z,9.50
2023-04-15T01:56:04.301Z,9.73
2023-04-15T01:58:34.190Z,9.43
2023-04-15T02:01:03.060Z,8.80
2023-04-15T02:03:33.610Z,9.13
2023-04-15T02:06:02.509Z,9.25
2023-04-15T02:08:30.803Z,9.73
2023-04-15T02:11:01.168Z,9.20
2023-04-15T02:13:30.212Z,9.80
2023-04-15T02:16:01.037Z,9.50
2023-04-15T02:18:29.469Z,9.55
2023-04-15T02:20:58.558Z,10.00
2023-04-15T02:23:27.258Z,9.82
2023-04-15T02:25:55.716Z,9.82
2023-04-15T02:28:24.263Z,10.10
2023-04-15T02:30:53.734Z,9.52
2023-04-15T02:33:23.775Z,10.13
2023-04-15T02:35:53.256Z,9.95
2023-04-15T02:38:21.784Z,10.55
2023-04-15T02:40:51.086Z,10.20
2023-04-15T02:43:19.421Z,10.02
2023-04-15T02:45:48.460Z,10.10
2023-04-15T02:48:19.408Z,10.25
2023-04-15T02:53:19.874Z,10.50
2023-04-15T02:55:48.343Z,11.10
2023-04-15T02:58:17.107Z,10.00
2023-04-15T03:00:45.523Z,10.10
2023-04-15T03:03:15.270Z,10.20
2023-04-15T03:05:43.781Z,10.43
2023-04-15T03:08:14.969Z,11.07
2023-04-15T03:10:43.324Z,10.45
2023-04-15T03:13:11.719Z,10.65
2023-04-15T03:15:40.666Z,10.68
2023-04-15T03:18:09.102Z,11.05
2023-04-15T03:20:37.514Z,10.50
2023-04-15T03:23:06.068Z,10.52
2023-04-15T03:25:37.436Z,11.05
2023-04-15T03:28:07.801Z,11.05
2023-04-15T03:30:36.364Z,11.15
2023-04-15T03:33:04.885Z,10.10
2023-04-15T03:35:33.961Z,11.10
2023-04-15T03:38:02.301Z,11.68
2023-04-15T03:40:30.740Z,10.82
2023-04-15T03:43:00.542Z,10.95
2023-04-15T03:45:28.915Z,10.73
2023-04-15T03:48:03.595Z,11.30
2023-04-15T03:50:39.711Z,11.00
2023-04-15T03:53:07.998Z,10.63
2023-04-15T03:55:36.360Z,10.85
2023-04-15T03:58:06.104Z,10.75
2023-04-15T04:00:34.493Z,10.87
2023-04-15T04:03:03.041Z,11.05
2023-04-15T04:05:31.782Z,10.57
2023-04-15T04:08:00.031Z,12.05
2023-04-15T04:10:28.402Z,11.73
2023-04-15T04:12:56.743Z,11.45
2023-04-15T04:15:27.105Z,11.65
2023-04-15T04:17:55.580Z,10.50
2023-04-15T04:20:25.115Z,11.63
2023-04-15T04:22:53.498Z,11.20
2023-04-15T04:25:21.997Z,11.00
2023-04-15T04:27:50.505Z,11.15
2023-04-15T04:30:18.932Z,11.15
2023-04-15T04:32:48.640Z,11.15
2023-04-15T04:35:17.086Z,11.00
2023-04-15T04:37:45.409Z,11.68
2023-04-15T04:40:14.879Z,11.77
2023-04-15T04:42:43.302Z,11.13
2023-04-15T04:45:12.373Z,11.65
2023-04-15T04:47:40.720Z,11.63
2023-04-15T04:50:11.672Z,11.38
2023-04-15T04:52:40.595Z,11.73
2023-04-15T04:55:09.679Z,11.93
2023-04-15T04:57:39.601Z,11.70
2023-04-15T05:00:10.833Z,11.57
2023-04-15T05:02:39.674Z,11.80
2023-04-15T05:05:10.968Z,11.60
2023-04-15T05:07:39.545Z,11.57
2023-04-15T05:10:09.864Z,12.20
2023-04-15T05:12:38.642Z,11.95
2023-04-15T05:15:09.120Z,11.85
2023-04-15T05:17:37.610Z,11.38
2023-04-15T05:20:07.502Z,11.38
2023-04-15T05:22:37.181Z,12.20
2023-04-15T05:25:06.606Z,12.07
2023-04-15T05:27:34.974Z,12.43
2023-04-15T05:30:03.385Z,11.73
2023-04-15T05:32:31.909Z,12.13
2023-04-15T05:35:00.285Z,12.55
2023-04-15T05:37:28.683Z,11.90
2023-04-15T05:39:58.369Z,12.20
2023-04-15T05:42:26.760Z,12.73
2023-04-15T05:44:55.185Z,12.90
2023-04-15T05:47:23.784Z,11.93
2023-04-15T05:49:52.226Z,11.80
2023-04-15T05:52:20.604Z,11.48
2023-04-15T05:54:48.931Z,11.30
2023-04-15T05:57:18.663Z,11.10
2023-04-15T05:59:47.153Z,11.70
2023-04-15T06:02:15.671Z,11.65
2023-04-15T06:04:44.073Z,11.30
2023-04-15T06:07:12.592Z,11.77
2023-04-15T06:09:41.220Z,11.88
2023-04-15T06:12:12.236Z,10.98
2023-04-15T06:14:42.225Z,11.52
2023-04-15T06:17:10.881Z,11.73
2023-04-15T06:19:39.366Z,11.68
2023-04-15T06:22:08.032Z,12.18
2023-04-15T06:24:37.127Z,12.35
2023-04-15T06:27:05.709Z,11.40
2023-04-15T06:29:34.439Z,11.95
2023-04-15T06:32:04.195Z,11.95
2023-04-15T06:34:32.606Z,11.47
2023-04-15T06:37:01.605Z,11.60
2023-04-15T06:39:30.018Z,12.23
2023-04-15T06:41:58.296Z,11.25
2023-04-15T06:44:26.786Z,11.90
2023-04-15T06:46:55.160Z,12.30
2023-04-15T06:49:24.897Z,11.00
2023-04-15T06:51:53.245Z,11.02
2023-04-15T06:54:21.828Z,11.38
2023-04-15T06:56:50.258Z,11.68
2023-04-15T06:59:19.153Z,11.13
2023-04-15T07:01:47.611Z,11.23
2023-04-15T07:04:16.390Z,11.50
2023-04-15T07:06:46.317Z,11.30
2023-04-15T07:09:15.885Z,11.30
2023-04-15T07:11:44.298Z,11.52
2023-04-15T07:14:13.394Z,11.35
2023-04-15T07:16:42.006Z,11.88
2023-04-15T07:19:10.599Z,12.35
2023-04-15T07:21:41.704Z,11.50
2023-04-15T07:24:11.916Z,11.95
2023-04-15T07:26:40.443Z,11.50
2023-04-15T07:29:08.871Z,12.10
2023-04-15T07:31:37.822Z,12.82
2023-04-15T07:34:08.023Z,12.23
2023-04-15T07:36:36.858Z,11.32
2023-04-15T07:39:06.040Z,11.45
2023-04-15T07:41:35.889Z,11.80
2023-04-15T07:44:04.268Z,11.87
2023-04-15T07:46:32.655Z,12.10
2023-04-15T07:49:01.627Z,11.50
2023-04-15T07:51:30.670Z,11.23
2023-04-15T07:53:58.980Z,11.55
2023-04-15T07:56:27.815Z,10.90
2023-04-15T07:58:57.507Z,11.63
2023-04-15T08:01:25.899Z,10.98
2023-04-15T08:03:55.441Z,10.93
2023-04-15T08:06:23.935Z,10.60
2023-04-15T08:08:52.725Z,11.32
2023-04-15T08:11:21.216Z,10.70
2023-04-15T08:13:49.587Z,10.45
2023-04-15T08:16:24.623Z,10.88
2023-04-15T08:18:56.622Z,10.40
2023-04-15T08:21:26.128Z,10.98
2023-04-15T08:23:55.545Z,10.75
2023-04-15T08:26:24.149Z,9.80
2023-04-15T08:28:52.506Z,11.40
2023-04-15T08:31:22.322Z,11.48
2023-04-15T08:33:52.084Z,10.65
2023-04-15T08:36:21.126Z,10.38
2023-04-15T08:38:49.415Z,10.80
2023-04-15T08:41:23.349Z,11.38
2023-04-15T08:43:59.065Z,10.25
2023-04-15T08:46:29.539Z,10.60
2023-04-15T08:49:00.535Z,11.70
2023-04-15T08:51:29.950Z,11.07
2023-04-15T08:53:58.329Z,10.77
2023-04-15T08:56:27.886Z,10.70
2023-04-15T08:58:56.790Z,10.48
2023-04-15T09:01:26.034Z,10.48
2023-04-15T09:03:56.478Z,10.52
2023-04-15T09:06:25.683Z,10.98
2023-04-15T09:08:54.202Z,12.05
2023-04-15T09:11:24.764Z,11.65
2023-04-15T09:13:53.256Z,11.35
2023-04-15T09:16:21.560Z,11.30
2023-04-15T09:18:50.023Z,11.00
2023-04-15T09:21:20.041Z,10.90
2023-04-15T09:23:59.287Z,10.75
2023-04-15T09:26:35.835Z,10.10
2023-04-15T09:29:07.925Z,10.38
2023-04-15T09:31:36.915Z,9.63
2023-04-15T09:34:05.498Z,9.43
2023-04-15T09:36:54.211Z,9.02
2023-04-15T09:39:22.697Z,8.77
2023-04-15T09:42:07.964Z,8.52
2023-04-15T09:44:36.736Z,8.70
2023-04-15T09:47:05.489Z,8.80
2023-04-15T09:49:34.261Z,8.40
2023-04-15T09:52:06.039Z,8.52
2023-04-15T09:54:37.389Z,7.88
2023-04-15T09:57:10.058Z,8.02
2023-04-15T09:59:38.720Z,7.85
2023-04-15T10:02:08.212Z,7.63
2023-04-15T10:04:41.568Z,7.47
2023-04-15T10:07:11.668Z,7.38
2023-04-15T10:09:41.325Z,7.60
2023-04-15T10:12:11.268Z,7.45
2023-04-15T10:14:40.969Z,7.10
2023-04-15T10:17:12.866Z,7.45
2023-04-15T10:19:42.929Z,8.40
2023-04-15T10:22:13.082Z,7.88
2023-04-15T10:24:42.660Z,6.85
2023-04-15T10:27:11.564Z,6.55
2023-04-15T10:29:40.112Z,6.32
2023-04-15T10:32:08.660Z,6.45
2023-04-15T10:34:38.355Z,5.72
2023-04-15T10:37:06.931Z,6.30
2023-04-15T10:39:44.616Z,5.93
2023-04-15T10:42:15.488Z,5.78
2023-04-15T10:44:46.158Z,5.38
2023-04-15T10:49:50.032Z,5.22
2023-04-15T10:52:23.608Z,5.18
2023-04-15T10:55:04.750Z,5.70
2023-04-15T10:57:38.599Z,5.70
2023-04-15T11:00:15.893Z,5.18
2023-04-15T11:02:49.318Z,5.43
2023-04-15T11:05:19.506Z,5.47
2023-04-15T11:07:54.452Z,5.90
2023-04-15T11:10:55.140Z,6.10
2023-04-15T11:13:31.656Z,5.82
2023-04-15T11:16:02.151Z,5.63
2023-04-15T11:18:33.612Z,5.28
2023-04-15T11:21:05.115Z,5.43
2023-04-15T11:23:37.485Z,5.38
2023-04-15T11:26:11.985Z,6.10
2023-04-15T11:28:43.019Z,5.50
2023-04-15T11:33:48.922Z,5.05
2023-04-15T11:36:17.821Z,4.82
2023-04-15T11:38:48.213Z,5.13
2023-04-15T11:41:23.308Z,4.35
2023-04-15T11:43:52.340Z,4.85
2023-04-15T11:46:21.508Z,4.97
2023-04-15T11:48:49.947Z,5.07
2023-04-15T11:51:18.596Z,5.65
2023-04-15T11:53:48.874Z,5.32
2023-04-15T11:56:23.984Z,6.45
2023-04-15T11:58:57.062Z,6.45
2023-04-15T12:01:33.581Z,6.05
2023-04-15T12:04:03.858Z,6.22
2023-04-15T12:06:36.889Z,6.00
2023-04-15T12:09:13.840Z,6.43
2023-04-15T12:11:48.391Z,6.22
2023-04-15T12:14:28.280Z,6.82
2023-04-15T12:17:00.258Z,7.03
2023-04-15T12:19:32.548Z,7.28
2023-04-15T12:22:04.163Z,6.82
2023-04-15T12:24:35.138Z,6.63
2023-04-15T12:27:06.638Z,6.55
2023-04-15T12:29:37.481Z,6.60
2023-04-15T12:32:08.647Z,6.60
2023-04-15T12:34:38.824Z,5.93
2023-04-15T12:37:10.135Z,6.47
2023-04-15T12:39:40.606Z,5.72
2023-04-15T12:42:11.409Z,6.47
2023-04-15T12:47:10.670Z,6.53
2023-04-15T12:49:39.441Z,6.63
2023-04-15T12:52:08.118Z,6.40
2023-04-15T12:54:36.642Z,6.60
2023-04-15T12:57:07.172Z,6.50
2023-04-15T12:59:37.804Z,6.47
2023-04-15T13:02:06.589Z,7.00
2023-04-15T13:04:35.121Z,6.68
2023-04-15T13:07:03.802Z,6.03
2023-04-15T13:09:32.419Z,6.47
2023-04-15T13:12:05.357Z,6.00
2023-04-15T13:14:33.701Z,5.80
2023-04-15T13:17:08.889Z,5.45
2023-04-15T13:19:37.667Z,6.18
2023-04-15T13:22:06.973Z,5.80
2023-04-15T13:24:35.395Z,5.60
2023-04-15T13:27:04.326Z,5.45
2023-04-15T13:29:32.639Z,5.13
2023-04-15T13:32:02.532Z,5.22
2023-04-15T13:34:30.859Z,5.70
2023-04-15T13:36:59.228Z,5.30
2023-04-15T13:39:27.573Z,5.63
2023-04-15T13:41:55.996Z,5.50
2023-04-15T13:44:24.326Z,5.38
2023-04-15T13:46:53.294Z,5.80
2023-04-15T13:49:22.954Z,5.35
2023-04-15T13:51:52.134Z,5.28
2023-04-15T13:54:20.438Z,5.00
2023-04-15T13:56:48.714Z,5.47
2023-04-15T13:59:17.126Z,5.60
2023-04-15T14:01:45.566Z,5.72
2023-04-15T14:04:14.711Z,5.38
2023-04-15T14:06:44.610Z,5.35
2023-04-15T14:09:13.010Z,5.47
2023-04-15T14:11:41.481Z,5.40
2023-04-15T14:14:09.890Z,6.20
2023-04-15T14:16:38.244Z,5.18
2023-04-15T14:19:06.849Z,5.10
2023-04-15T14:21:35.461Z,5.78
2023-04-15T14:24:05.892Z,4.93
2023-04-15T14:26:34.269Z,5.45
2023-04-15T14:29:03.909Z,5.53
2023-04-15T14:31:32.425Z,4.97
2023-04-15T14:34:00.683Z,5.13
2023-04-15T14:36:29.102Z,5.60
2023-04-15T14:38:57.470Z,5.60
2023-04-15T14:41:27.245Z,5.72
2023-04-15T14:43:56.602Z,5.63
2023-04-15T14:46:24.929Z,5.95
2023-04-15T14:48:53.602Z,6.32
2023-04-15T14:51:21.951Z,5.75
2023-04-15T14:53:50.356Z,5.80
2023-04-15T14:56:18.665Z,5.85
2023-04-15T14:58:49.357Z,5.60
2023-04-15T15:03:46.180Z,6.65
2023-04-15T15:06:14.694Z,6.78
2023-04-15T15:08:43.054Z,6.28
2023-04-15T15:11:11.641Z,6.63
2023-04-15T15:13:39.936Z,5.55
2023-04-15T15:16:11.396Z,6.00
2023-04-15T15:18:41.495Z,6.28
2023-04-15T15:21:09.859Z,6.60
2023-04-15T15:23:38.213Z,6.68
2023-04-15T15:26:07.118Z,5.25
2023-04-15T15:28:36.009Z,6.15
2023-04-15T15:31:05.350Z,6.43
2023-04-15T15:33:35.315Z,6.93
2023-04-15T15:36:05.328Z,6.97
2023-04-15T15:38:33.748Z,6.22
2023-04-15T15:41:02.076Z,6.55
2023-04-15T15:43:30.446Z,6.00
2023-04-15T15:45:58.736Z,6.57
2023-04-15T15:48:27.111Z,6.05
2023-04-15T15:50:57.729Z,5.90
2023-04-15T15:55:54.486Z,5.80
2023-04-15T15:58:22.844Z,5.68
2023-04-15T16:00:51.299Z,5.88
2023-04-15T16:03:19.936Z,6.47
2023-04-15T16:05:48.442Z,5.90
2023-04-15T16:08:20.137Z,5.20
2023-04-15T16:10:48.549Z,5.35
2023-04-15T16:13:16.904Z,5.80
2023-04-15T16:15:45.301Z,5.90
2023-04-15T16:18:13.649Z,5.70
2023-04-15T16:20:42.091Z,5.68
2023-04-15T16:23:15.040Z,5.65
2023-04-15T16:25:45.819Z,5.57
2023-04-15T16:30:55.563Z,5.38
2023-04-15T16:33:23.926Z,5.75
2023-04-15T16:35:53.067Z,5.13
2023-04-15T16:38:21.541Z,5.45
2023-04-15T16:40:51.535Z,5.78
2023-04-15T16:43:20.140Z,5.47
2023-04-15T16:45:51.028Z,6.25
2023-04-15T16:48:20.134Z,5.50
2023-04-15T16:50:49.639Z,5.25
2023-04-15T16:53:18.047Z,5.78
2023-04-15T16:55:46.417Z,5.05
2023-04-15T16:58:16.328Z,4.97
2023-04-15T17:00:45.199Z,5.20
2023-04-15T17:03:13.989Z,5.40
2023-04-15T17:05:42.949Z,5.07
2023-04-15T17:08:11.279Z,5.78
2023-04-15T17:10:39.794Z,6.30
2023-04-15T17:13:08.283Z,5.55
2023-04-15T17:15:38.139Z,5.20
2023-04-15T17:18:06.729Z,4.97
2023-04-15T17:20:35.527Z,4.95
2023-04-15T17:23:04.873Z,4.75
2023-04-15T17:25:33.112Z,5.07
2023-04-15T17:28:02.022Z,5.22
2023-04-15T17:30:30.661Z,5.20
2023-04-15T17:33:00.762Z,5.85
2023-04-15T17:35:29.282Z,5.43
2023-04-15T17:37:58.310Z,5.38
2023-04-15T17:40:26.673Z,5.20
2023-04-15T17:42:55.267Z,5.30
2023-04-15T17:45:23.610Z,4.88
2023-04-15T17:47:51.909Z,4.90
2023-04-15T17:50:22.476Z,5.18
2023-04-15T17:52:51.547Z,5.00
2023-04-15T17:55:22.112Z,5.40
2023-04-15T17:57:50.568Z,4.80
2023-04-15T18:00:19.052Z,4.22
2023-04-15T18:02:48.812Z,4.47
2023-04-15T18:05:18.823Z,4.50
2023-04-15T18:07:49.054Z,4.70
2023-04-15T18:10:17.518Z,4.45
2023-04-15T18:12:45.965Z,4.70
2023-04-15T18:15:14.560Z,4.93
2023-04-15T18:17:42.988Z,4.50
2023-04-15T18:20:12.829Z,4.68
2023-04-15T18:22:41.273Z,5.10
2023-04-15T18:25:11.632Z,4.75
2023-04-15T18:27:40.396Z,4.60
2023-04-15T18:30:10.515Z,4.25
2023-04-15T18:32:39.798Z,4.55
2023-04-15T18:35:09.258Z,4.93
2023-04-15T18:37:37.641Z,4.50
2023-04-15T18:40:08.596Z,5.00
2023-04-15T18:42:38.506Z,4.20
2023-04-15T18:45:08.303Z,4.78
2023-04-15T18:47:36.684Z,4.20
2023-04-15T18:50:05.302Z,4.70
2023-04-15T18:52:33.823Z,4.30
2023-04-15T18:55:03.387Z,5.10
2023-04-15T18:57:34.778Z,5.00
2023-04-15T19:00:08.241Z,4.35
2023-04-15T19:02:36.742Z,4.30
2023-04-15T19:05:06.996Z,4.03
2023-04-15T19:07:36.130Z,4.15
2023-04-15T19:10:05.087Z,4.25
2023-04-15T19:12:33.666Z,4.70
2023-04-15T19:15:01.967Z,4.20
2023-04-15T19:17:31.730Z,4.68
2023-04-15T19:20:00.157Z,4.50
2023-04-15T19:22:30.640Z,4.32
2023-04-15T19:24:59.134Z,4.60
2023-04-15T19:27:28.278Z,4.63
2023-04-15T19:29:56.676Z,4.47
2023-04-15T19:32:25.111Z,4.68
2023-04-15T19:34:54.937Z,4.93
2023-04-15T19:37:23.340Z,5.47
2023-04-15T19:39:51.673Z,4.30
2023-04-15T19:42:20.051Z,4.45
2023-04-15T19:44:48.471Z,4.55
2023-04-15T19:47:16.844Z,4.40
2023-04-15T19:49:45.278Z,4.75
2023-04-15T19:52:15.004Z,5.35
2023-04-15T19:54:43.368Z,4.80
2023-04-15T19:57:11.678Z,5.03
2023-04-15T19:59:40.048Z,5.10
2023-04-15T20:02:08.808Z,5.03
2023-04-15T20:04:37.313Z,5.38
2023-04-15T20:07:05.678Z,4.85
2023-04-15T20:09:35.530Z,4.82
2023-04-15T20:12:09.681Z,4.75
2023-04-15T20:14:52.432Z,4.90
2023-04-15T20:17:20.798Z,4.53
2023-04-15T20:19:49.164Z,4.45
2023-04-15T20:22:17.517Z,5.28
2023-04-15T20:24:47.385Z,5.22
2023-04-15T20:27:15.776Z,5.10
2023-04-15T20:29:44.110Z,4.70
2023-04-15T20:32:12.886Z,5.22
2023-04-15T20:34:41.275Z,5.05
2023-04-15T20:37:11.403Z,4.88
2023-04-15T20:39:41.338Z,4.70
2023-04-15T20:42:11.194Z,4.63
2023-04-15T20:44:39.615Z,4.47
2023-04-15T20:47:08.164Z,5.10
2023-04-15T20:49:36.858Z,4.82
2023-04-15T20:52:06.447Z,4.68
2023-04-15T20:54:35.048Z,4.40
2023-04-15T20:57:03.541Z,5.03
2023-04-15T20:59:34.829Z,4.30
2023-04-15T21:02:03.355Z,4.15
2023-04-15T21:04:31.789Z,3.90
2023-04-15T21:07:00.133Z,4.30
2023-04-15T21:09:28.458Z,3.97
2023-04-15T21:12:01.529Z,4.20
2023-04-15T21:14:31.011Z,4.20
2023-04-15T21:17:03.334Z,5.10
2023-04-15T21:19:31.730Z,4.53
2023-04-15T21:22:00.336Z,3.78
2023-04-15T21:24:29.146Z,4.10
2023-04-15T21:26:57.717Z,4.35
2023-04-15T21:29:26.605Z,4.00
2023-04-15T21:31:55.085Z,3.90
2023-04-15T21:34:25.029Z,3.97
2023-04-15T21:36:53.402Z,3.92
2023-04-15T21:39:21.801Z,3.63
2023-04-15T21:41:50.260Z,4.45
2023-04-15T21:44:18.638Z,4.35
2023-04-15T21:46:47.116Z,4.10
2023-04-15T21:49:16.091Z,5.00
2023-04-15T21:51:46.377Z,4.32
2023-04-15T21:54:14.750Z,4.00
2023-04-15T21:56:43.734Z,4.45
2023-04-15T21:59:12.177Z,3.85
2023-04-15T22:01:40.545Z,4.57
2023-04-15T22:04:10.916Z,3.90
2023-04-15T22:06:39.777Z,4.32
2023-04-15T22:09:11.997Z,4.40
2023-04-15T22:11:41.904Z,3.92
2023-04-15T22:14:10.528Z,4.53
2023-04-15T22:16:39.001Z,4.10
2023-04-15T22:19:07.585Z,3.92
2023-04-15T22:21:36.323Z,4.35
2023-04-15T22:24:38.818Z,4.28
2023-04-15T22:26:54.881Z,4.07
2023-04-15T22:29:23.369Z,3.93
2023-04-15T22:31:51.956Z,4.20
2023-04-15T22:34:21.591Z,4.38
2023-04-15T22:36:50.792Z,3.70
2023-04-15T22:39:19.703Z,3.80
2023-04-15T22:41:48.057Z,4.72
2023-04-15T22:44:17.818Z,4.75
2023-04-15T22:46:46.278Z,4.10
2023-04-15T22:49:14.511Z,4.03
2023-04-15T22:51:42.915Z,4.38
2023-04-15T22:54:11.335Z,4.53
2023-04-15T22:56:39.769Z,4.38
2023-04-15T22:59:08.344Z,4.20
2023-04-15T23:01:39.043Z,4.22
2023-04-15T23:04:09.615Z,4.43
2023-04-15T23:06:52.472Z,4.18
2023-04-15T23:09:20.996Z,4.28
2023-04-15T23:11:49.374Z,5.45
2023-04-15T23:14:17.742Z,4.22
2023-04-15T23:16:47.551Z,4.88
2023-04-15T23:19:15.996Z,4.70
2023-04-15T23:21:44.439Z,4.43
2023-04-15T23:24:13.425Z,4.20
2023-04-15T23:26:41.954Z,4.63
2023-04-15T23:29:11.301Z,4.97
2023-04-15T23:31:41.550Z,4.40
2023-04-15T23:34:11.471Z,4.53
2023-04-15T23:36:40.428Z,4.60
2023-04-15T23:39:09.129Z,5.22
2023-04-15T23:41:37.699Z,5.43
2023-04-15T23:44:07.159Z,5.18
2023-04-15T23:46:35.540Z,5.50
2023-04-15T23:49:03.900Z,6.45
2023-04-15T23:51:33.681Z,6.50
2023-04-15T23:54:02.059Z,6.53
2023-04-15T23:56:30.455Z,5.47
2023-04-15T23:58:58.831Z,6.20
